sensor_id;sensor_type;location;lat;lon;timestamp;P1;durP1;ratioP1;P2;durP2;ratioP2
3293;SDS011;1659;51.470;6.770;2023-06-22T00:02:02;13.40;;;9.50;;
3293;SDS011;1659;51.470;6.770;2023-06-22T00:04:29;11.90;;;9.10;;
3293;SDS011;1659;51.470;6.770;2023-06-22T00:06:58;12.00;;;8.57;;
3293;SDS011;1659;51.470;6.770;2023-06-22T00:09:24;13.90;;;10.27;;
3293;SDS011;1659;51.470;6.770;2023-06-22T00:11:51;14.83;;;9.00;;
3293;SDS011;1659;51.470;6.770;2023-06-22T00:14:18;13.17;;;10.27;;
3293;SDS011;1659;51.470;6.770;2023-06-22T00:16:46;11.70;;;9.20;;
3293;SDS011;1659;51.470;6.770;2023-06-22T00:19:13;19.80;;;10.10;;
3293;SDS011;1659;51.470;6.770;2023-06-22T00:21:40;12.17;;;9.07;;
3293;SDS011;1659;51.470;6.770;2023-06-22T00:24:07;14.13;;;10.33;;
3293;SDS011;1659;51.470;6.770;2023-06-22T00:26:34;15.37;;;9.83;;
3293;SDS011;1659;51.470;6.770;2023-06-22T00:29:00;15.30;;;11.13;;
3293;SDS011;1659;51.470;6.770;2023-06-22T00:31:27;14.00;;;10.87;;
3293;SDS011;1659;51.470;6.770;2023-06-22T00:33:55;12.23;;;9.63;;
3293;SDS011;1659;51.470;6.770;2023-06-22T00:36:21;17.67;;;10.50;;
3293;SDS011;1659;51.470;6.770;2023-06-22T00:38:49;16.50;;;11.00;;
3293;SDS011;1659;51.470;6.770;2023-06-22T00:41:16;15.07;;;9.67;;
3293;SDS011;1659;51.470;6.770;2023-06-22T00:43:43;20.47;;;11.67;;
3293;SDS011;1659;51.470;6.770;2023-06-22T00:46:09;13.73;;;10.50;;
3293;SDS011;1659;51.470;6.770;2023-06-22T00:48:36;12.30;;;10.00;;
3293;SDS011;1659;51.470;6.770;2023-06-22T00:51:08;19.20;;;11.60;;
3293;SDS011;1659;51.470;6.770;2023-06-22T00:53:34;22.43;;;10.50;;
3293;SDS011;1659;51.470;6.770;2023-06-22T00:56:03;16.53;;;11.87;;
3293;SDS011;1659;51.470;6.770;2023-06-22T00:58:32;16.87;;;11.93;;
3293;SDS011;1659;51.470;6.770;2023-06-22T01:00:59;17.57;;;12.60;;
3293;SDS011;1659;51.470;6.770;2023-06-22T01:03:27;19.53;;;11.90;;
3293;SDS011;1659;51.470;6.770;2023-06-22T01:05:54;15.43;;;11.10;;
3293;SDS011;1659;51.470;6.770;2023-06-22T01:08:31;17.33;;;12.00;;
3293;SDS011;1659;51.470;6.770;2023-06-22T01:11:07;18.00;;;11.80;;
3293;SDS011;1659;51.470;6.770;2023-06-22T01:13:37;16.13;;;12.17;;
3293;SDS011;1659;51.470;6.770;2023-06-22T01:16:23;17.50;;;12.10;;
3293;SDS011;1659;51.470;6.770;2023-06-22T01:18:52;14.07;;;11.30;;
3293;SDS011;1659;51.470;6.770;2023-06-22T01:21:22;15.90;;;11.63;;
3293;SDS011;1659;51.470;6.770;2023-06-22T01:23:53;16.47;;;12.23;;
3293;SDS011;1659;51.470;6.770;2023-06-22T01:26:28;16.57;;;12.60;;
3293;SDS011;1659;51.470;6.770;2023-06-22T01:29:04;16.33;;;11.47;;
3293;SDS011;1659;51.470;6.770;2023-06-22T01:31:33;20.30;;;13.07;;
3293;SDS011;1659;51.470;6.770;2023-06-22T01:34:02;16.80;;;11.40;;
3293;SDS011;1659;51.470;6.770;2023-06-22T01:36:31;16.70;;;11.40;;
3293;SDS011;1659;51.470;6.770;2023-06-22T01:38:59;18.47;;;13.13;;
3293;SDS011;1659;51.470;6.770;2023-06-22T01:41:27;16.30;;;12.60;;
3293;SDS011;1659;51.470;6.770;2023-06-22T01:43:56;16.17;;;12.73;;
3293;SDS011;1659;51.470;6.770;2023-06-22T01:46:24;18.20;;;13.20;;
3293;SDS011;1659;51.470;6.770;2023-06-22T01:48:51;16.20;;;11.40;;
3293;SDS011;1659;51.470;6.770;2023-06-22T01:51:18;18.50;;;12.90;;
3293;SDS011;1659;51.470;6.770;2023-06-22T01:53:45;15.43;;;11.93;;
3293;SDS011;1659;51.470;6.770;2023-06-22T01:56:12;20.27;;;13.63;;
3293;SDS011;1659;51.470;6.770;2023-06-22T01:58:43;21.27;;;13.07;;
3293;SDS011;1659;51.470;6.770;2023-06-22T02:01:19;18.60;;;12.50;;
3293;SDS011;1659;51.470;6.770;2023-06-22T02:03:52;24.53;;;13.63;;
3293;SDS011;1659;51.470;6.770;2023-06-22T02:06:25;24.60;;;13.03;;
3293;SDS011;1659;51.470;6.770;2023-06-22T02:09:02;14.83;;;12.00;;
3293;SDS011;1659;51.470;6.770;2023-06-22T02:11:34;20.50;;;13.43;;
3293;SDS011;1659;51.470;6.770;2023-06-22T02:14:02;19.50;;;12.17;;
3293;SDS011;1659;51.470;6.770;2023-06-22T02:16:31;23.50;;;14.77;;
3293;SDS011;1659;51.470;6.770;2023-06-22T02:19:00;19.77;;;13.37;;
3293;SDS011;1659;51.470;6.770;2023-06-22T02:21:29;19.43;;;12.37;;
3293;SDS011;1659;51.470;6.770;2023-06-22T02:23:56;19.07;;;13.00;;
3293;SDS011;1659;51.470;6.770;2023-06-22T02:26:22;20.77;;;14.97;;
3293;SDS011;1659;51.470;6.770;2023-06-22T02:28:51;21.53;;;14.63;;
3293;SDS011;1659;51.470;6.770;2023-06-22T02:31:17;20.73;;;13.27;;
3293;SDS011;1659;51.470;6.770;2023-06-22T02:33:44;21.10;;;14.10;;
3293;SDS011;1659;51.470;6.770;2023-06-22T02:36:12;21.73;;;14.50;;
3293;SDS011;1659;51.470;6.770;2023-06-22T02:38:40;21.03;;;14.00;;
3293;SDS011;1659;51.470;6.770;2023-06-22T02:41:10;18.50;;;12.73;;
3293;SDS011;1659;51.470;6.770;2023-06-22T02:43:38;23.13;;;13.57;;
3293;SDS011;1659;51.470;6.770;2023-06-22T02:46:04;21.80;;;14.43;;
3293;SDS011;1659;51.470;6.770;2023-06-22T02:48:31;21.80;;;14.30;;
3293;SDS011;1659;51.470;6.770;2023-06-22T02:50:57;22.67;;;15.27;;
3293;SDS011;1659;51.470;6.770;2023-06-22T02:53:25;21.77;;;14.17;;
3293;SDS011;1659;51.470;6.770;2023-06-22T02:55:52;22.77;;;15.90;;
3293;SDS011;1659;51.470;6.770;2023-06-22T02:58:18;21.63;;;14.60;;
3293;SDS011;1659;51.470;6.770;2023-06-22T03:00:45;20.67;;;15.20;;
3293;SDS011;1659;51.470;6.770;2023-06-22T03:03:11;20.60;;;14.50;;
3293;SDS011;1659;51.470;6.770;2023-06-22T03:05:38;23.47;;;15.87;;
3293;SDS011;1659;51.470;6.770;2023-06-22T03:08:05;20.70;;;15.40;;
3293;SDS011;1659;51.470;6.770;2023-06-22T03:10:33;23.97;;;15.40;;
3293;SDS011;1659;51.470;6.770;2023-06-22T03:12:59;24.23;;;17.47;;
3293;SDS011;1659;51.470;6.770;2023-06-22T03:15:26;23.67;;;15.70;;
3293;SDS011;1659;51.470;6.770;2023-06-22T03:17:54;28.03;;;15.53;;
3293;SDS011;1659;51.470;6.770;2023-06-22T03:20:21;26.23;;;16.07;;
3293;SDS011;1659;51.470;6.770;2023-06-22T03:22:48;23.17;;;16.10;;
3293;SDS011;1659;51.470;6.770;2023-06-22T03:25:14;21.43;;;16.27;;
3293;SDS011;1659;51.470;6.770;2023-06-22T03:27:42;26.47;;;15.60;;
3293;SDS011;1659;51.470;6.770;2023-06-22T03:30:10;22.23;;;15.37;;
3293;SDS011;1659;51.470;6.770;2023-06-22T03:32:37;23.87;;;16.17;;
3293;SDS011;1659;51.470;6.770;2023-06-22T03:35:05;25.50;;;16.97;;
3293;SDS011;1659;51.470;6.770;2023-06-22T03:37:32;30.40;;;17.37;;
3293;SDS011;1659;51.470;6.770;2023-06-22T03:39:58;22.63;;;16.33;;
3293;SDS011;1659;51.470;6.770;2023-06-22T03:42:25;28.63;;;17.43;;
3293;SDS011;1659;51.470;6.770;2023-06-22T03:44:53;24.33;;;17.13;;
3293;SDS011;1659;51.470;6.770;2023-06-22T03:47:20;26.33;;;18.70;;
3293;SDS011;1659;51.470;6.770;2023-06-22T03:49:46;22.93;;;16.43;;
3293;SDS011;1659;51.470;6.770;2023-06-22T03:52:13;25.20;;;17.17;;
3293;SDS011;1659;51.470;6.770;2023-06-22T03:54:39;25.60;;;17.33;;
3293;SDS011;1659;51.470;6.770;2023-06-22T03:57:06;29.10;;;19.10;;
3293;SDS011;1659;51.470;6.770;2023-06-22T03:59:33;29.37;;;18.17;;
3293;SDS011;1659;51.470;6.770;2023-06-22T04:02:01;24.23;;;15.37;;
3293;SDS011;1659;51.470;6.770;2023-06-22T04:04:27;25.93;;;17.70;;
3293;SDS011;1659;51.470;6.770;2023-06-22T04:06:54;26.27;;;17.37;;
3293;SDS011;1659;51.470;6.770;2023-06-22T04:09:20;25.73;;;17.27;;
3293;SDS011;1659;51.470;6.770;2023-06-22T04:11:47;24.87;;;17.80;;
3293;SDS011;1659;51.470;6.770;2023-06-22T04:14:14;30.13;;;18.40;;
3293;SDS011;1659;51.470;6.770;2023-06-22T04:16:40;26.60;;;17.67;;
3293;SDS011;1659;51.470;6.770;2023-06-22T04:19:08;27.03;;;18.43;;
3293;SDS011;1659;51.470;6.770;2023-06-22T04:21:41;24.87;;;17.40;;
3293;SDS011;1659;51.470;6.770;2023-06-22T04:24:07;24.77;;;15.53;;
3293;SDS011;1659;51.470;6.770;2023-06-22T04:26:34;25.83;;;18.40;;
3293;SDS011;1659;51.470;6.770;2023-06-22T04:29:01;26.50;;;16.73;;
3293;SDS011;1659;51.470;6.770;2023-06-22T04:31:30;26.90;;;17.67;;
3293;SDS011;1659;51.470;6.770;2023-06-22T04:33:57;32.97;;;17.97;;
3293;SDS011;1659;51.470;6.770;2023-06-22T04:36:31;23.20;;;16.70;;
3293;SDS011;1659;51.470;6.770;2023-06-22T04:39:02;23.37;;;17.83;;
3293;SDS011;1659;51.470;6.770;2023-06-22T04:41:29;23.50;;;16.00;;
3293;SDS011;1659;51.470;6.770;2023-06-22T04:44:02;28.57;;;18.93;;
3293;SDS011;1659;51.470;6.770;2023-06-22T04:46:29;23.80;;;16.80;;
3293;SDS011;1659;51.470;6.770;2023-06-22T04:48:56;30.40;;;18.50;;
3293;SDS011;1659;51.470;6.770;2023-06-22T04:51:22;24.10;;;16.37;;
3293;SDS011;1659;51.470;6.770;2023-06-22T04:53:57;27.17;;;18.77;;
3293;SDS011;1659;51.470;6.770;2023-06-22T04:56:25;23.73;;;16.93;;
3293;SDS011;1659;51.470;6.770;2023-06-22T04:58:53;25.83;;;16.07;;
3293;SDS011;1659;51.470;6.770;2023-06-22T05:01:21;26.73;;;16.80;;
3293;SDS011;1659;51.470;6.770;2023-06-22T05:03:47;22.20;;;15.97;;
3293;SDS011;1659;51.470;6.770;2023-06-22T05:06:14;25.73;;;17.63;;
3293;SDS011;1659;51.470;6.770;2023-06-22T05:08:41;24.00;;;16.27;;
3293;SDS011;1659;51.470;6.770;2023-06-22T05:11:10;22.03;;;15.13;;
3293;SDS011;1659;51.470;6.770;2023-06-22T05:13:36;25.60;;;17.90;;
3293;SDS011;1659;51.470;6.770;2023-06-22T05:16:03;24.93;;;16.83;;
3293;SDS011;1659;51.470;6.770;2023-06-22T05:18:31;24.23;;;17.97;;
3293;SDS011;1659;51.470;6.770;2023-06-22T05:20:58;25.00;;;17.80;;
3293;SDS011;1659;51.470;6.770;2023-06-22T05:23:25;29.40;;;18.70;;
3293;SDS011;1659;51.470;6.770;2023-06-22T05:25:51;27.47;;;17.93;;
3293;SDS011;1659;51.470;6.770;2023-06-22T05:28:21;25.23;;;16.27;;
3293;SDS011;1659;51.470;6.770;2023-06-22T05:30:49;28.27;;;18.37;;
3293;SDS011;1659;51.470;6.770;2023-06-22T05:33:15;24.27;;;16.43;;
3293;SDS011;1659;51.470;6.770;2023-06-22T05:35:42;25.90;;;16.63;;
3293;SDS011;1659;51.470;6.770;2023-06-22T05:38:08;25.13;;;16.37;;
3293;SDS011;1659;51.470;6.770;2023-06-22T05:40:35;26.23;;;16.50;;
3293;SDS011;1659;51.470;6.770;2023-06-22T05:43:02;19.93;;;14.70;;
3293;SDS011;1659;51.470;6.770;2023-06-22T05:45:30;15.87;;;12.50;;
3293;SDS011;1659;51.470;6.770;2023-06-22T05:47:56;28.03;;;14.30;;
3293;SDS011;1659;51.470;6.770;2023-06-22T05:50:23;42.23;;;16.07;;
3293;SDS011;1659;51.470;6.770;2023-06-22T05:52:49;27.70;;;15.63;;
3293;SDS011;1659;51.470;6.770;2023-06-22T05:55:16;23.90;;;16.87;;
3293;SDS011;1659;51.470;6.770;2023-06-22T05:57:43;17.40;;;13.30;;
3293;SDS011;1659;51.470;6.770;2023-06-22T06:00:10;20.50;;;14.43;;
3293;SDS011;1659;51.470;6.770;2023-06-22T06:02:40;25.70;;;15.40;;
3293;SDS011;1659;51.470;6.770;2023-06-22T06:05:08;24.03;;;13.77;;
3293;SDS011;1659;51.470;6.770;2023-06-22T06:07:36;26.33;;;18.13;;
3293;SDS011;1659;51.470;6.770;2023-06-22T06:10:02;25.17;;;14.90;;
3293;SDS011;1659;51.470;6.770;2023-06-22T06:12:29;20.20;;;14.50;;
3293;SDS011;1659;51.470;6.770;2023-06-22T06:14:56;21.63;;;15.70;;
3293;SDS011;1659;51.470;6.770;2023-06-22T06:17:22;27.87;;;16.50;;
3293;SDS011;1659;51.470;6.770;2023-06-22T06:19:50;29.03;;;17.70;;
3293;SDS011;1659;51.470;6.770;2023-06-22T06:22:17;25.90;;;16.83;;
3293;SDS011;1659;51.470;6.770;2023-06-22T06:24:46;31.60;;;19.33;;
3293;SDS011;1659;51.470;6.770;2023-06-22T06:27:12;27.70;;;19.87;;
3293;SDS011;1659;51.470;6.770;2023-06-22T06:29:39;26.93;;;16.87;;
3293;SDS011;1659;51.470;6.770;2023-06-22T06:32:06;28.07;;;18.80;;
3293;SDS011;1659;51.470;6.770;2023-06-22T06:34:33;25.83;;;18.50;;
3293;SDS011;1659;51.470;6.770;2023-06-22T06:37:01;31.13;;;21.20;;
3293;SDS011;1659;51.470;6.770;2023-06-22T06:39:28;30.73;;;20.20;;
3293;SDS011;1659;51.470;6.770;2023-06-22T06:41:55;27.00;;;19.00;;
3293;SDS011;1659;51.470;6.770;2023-06-22T06:44:21;31.00;;;20.40;;
3293;SDS011;1659;51.470;6.770;2023-06-22T06:46:48;29.43;;;20.63;;
3293;SDS011;1659;51.470;6.770;2023-06-22T06:49:15;33.40;;;20.87;;
3293;SDS011;1659;51.470;6.770;2023-06-22T06:51:41;30.67;;;20.10;;
3293;SDS011;1659;51.470;6.770;2023-06-22T06:54:09;38.90;;;20.27;;
3293;SDS011;1659;51.470;6.770;2023-06-22T06:56:36;28.40;;;19.60;;
3293;SDS011;1659;51.470;6.770;2023-06-22T06:59:02;28.30;;;20.00;;
3293;SDS011;1659;51.470;6.770;2023-06-22T07:01:29;37.87;;;20.47;;
3293;SDS011;1659;51.470;6.770;2023-06-22T07:03:58;30.10;;;20.20;;
3293;SDS011;1659;51.470;6.770;2023-06-22T07:06:25;32.03;;;21.23;;
3293;SDS011;1659;51.470;6.770;2023-06-22T07:08:54;30.03;;;19.57;;
3293;SDS011;1659;51.470;6.770;2023-06-22T07:11:22;28.23;;;19.20;;
3293;SDS011;1659;51.470;6.770;2023-06-22T07:13:49;32.50;;;20.83;;
3293;SDS011;1659;51.470;6.770;2023-06-22T07:16:15;26.90;;;19.30;;
3293;SDS011;1659;51.470;6.770;2023-06-22T07:18:42;28.43;;;19.60;;
3293;SDS011;1659;51.470;6.770;2023-06-22T07:21:09;29.00;;;20.73;;
3293;SDS011;1659;51.470;6.770;2023-06-22T07:23:36;30.63;;;21.40;;
3293;SDS011;1659;51.470;6.770;2023-06-22T07:26:02;30.30;;;19.70;;
3293;SDS011;1659;51.470;6.770;2023-06-22T07:28:32;34.27;;;20.10;;
3293;SDS011;1659;51.470;6.770;2023-06-22T07:31:02;29.63;;;21.77;;
3293;SDS011;1659;51.470;6.770;2023-06-22T07:33:29;35.80;;;21.43;;
3293;SDS011;1659;51.470;6.770;2023-06-22T07:35:56;26.60;;;19.40;;
3293;SDS011;1659;51.470;6.770;2023-06-22T07:38:22;28.17;;;20.43;;
3293;SDS011;1659;51.470;6.770;2023-06-22T07:40:49;27.77;;;20.40;;
3293;SDS011;1659;51.470;6.770;2023-06-22T07:43:18;29.20;;;21.70;;
3293;SDS011;1659;51.470;6.770;2023-06-22T07:45:49;32.87;;;21.83;;
3293;SDS011;1659;51.470;6.770;2023-06-22T07:48:19;32.47;;;20.67;;
3293;SDS011;1659;51.470;6.770;2023-06-22T07:50:46;27.07;;;20.37;;
3293;SDS011;1659;51.470;6.770;2023-06-22T07:53:13;29.97;;;22.07;;
3293;SDS011;1659;51.470;6.770;2023-06-22T07:55:39;27.77;;;19.07;;
3293;SDS011;1659;51.470;6.770;2023-06-22T07:58:06;40.80;;;24.40;;
3293;SDS011;1659;51.470;6.770;2023-06-22T08:00:33;38.30;;;22.63;;
3293;SDS011;1659;51.470;6.770;2023-06-22T08:03:01;31.67;;;21.87;;
3293;SDS011;1659;51.470;6.770;2023-06-22T08:05:30;32.53;;;23.00;;
3293;SDS011;1659;51.470;6.770;2023-06-22T08:07:57;25.17;;;18.73;;
3293;SDS011;1659;51.470;6.770;2023-06-22T08:10:23;36.37;;;23.37;;
3293;SDS011;1659;51.470;6.770;2023-06-22T08:12:50;30.27;;;21.17;;
3293;SDS011;1659;51.470;6.770;2023-06-22T08:15:17;34.10;;;22.60;;
3293;SDS011;1659;51.470;6.770;2023-06-22T08:17:44;37.93;;;24.23;;
3293;SDS011;1659;51.470;6.770;2023-06-22T08:20:12;32.20;;;22.90;;
3293;SDS011;1659;51.470;6.770;2023-06-22T08:22:39;31.60;;;21.70;;
3293;SDS011;1659;51.470;6.770;2023-06-22T08:25:07;34.23;;;23.47;;
3293;SDS011;1659;51.470;6.770;2023-06-22T08:27:35;31.77;;;22.63;;
3293;SDS011;1659;51.470;6.770;2023-06-22T08:30:01;37.33;;;22.63;;
3293;SDS011;1659;51.470;6.770;2023-06-22T08:32:28;28.67;;;21.77;;
3293;SDS011;1659;51.470;6.770;2023-06-22T08:34:57;30.63;;;21.83;;
3293;SDS011;1659;51.470;6.770;2023-06-22T08:37:25;34.23;;;21.63;;
3293;SDS011;1659;51.470;6.770;2023-06-22T08:39:56;31.67;;;22.23;;
3293;SDS011;1659;51.470;6.770;2023-06-22T08:42:23;29.50;;;20.50;;
3293;SDS011;1659;51.470;6.770;2023-06-22T08:44:50;34.50;;;22.83;;
3293;SDS011;1659;51.470;6.770;2023-06-22T08:47:17;33.10;;;22.60;;
3293;SDS011;1659;51.470;6.770;2023-06-22T08:49:44;38.53;;;23.87;;
3293;SDS011;1659;51.470;6.770;2023-06-22T08:52:11;34.60;;;20.97;;
3293;SDS011;1659;51.470;6.770;2023-06-22T08:54:38;34.47;;;21.40;;
3293;SDS011;1659;51.470;6.770;2023-06-22T08:57:05;32.30;;;21.17;;
3293;SDS011;1659;51.470;6.770;2023-06-22T08:59:32;33.63;;;22.40;;
3293;SDS011;1659;51.470;6.770;2023-06-22T09:01:59;36.23;;;25.17;;
3293;SDS011;1659;51.470;6.770;2023-06-22T09:04:25;33.77;;;22.40;;
3293;SDS011;1659;51.470;6.770;2023-06-22T09:06:52;35.73;;;22.40;;
3293;SDS011;1659;51.470;6.770;2023-06-22T09:09:18;37.80;;;23.93;;
3293;SDS011;1659;51.470;6.770;2023-06-22T09:11:48;38.47;;;24.30;;
3293;SDS011;1659;51.470;6.770;2023-06-22T09:14:15;34.60;;;23.60;;
3293;SDS011;1659;51.470;6.770;2023-06-22T09:16:41;31.13;;;19.90;;
3293;SDS011;1659;51.470;6.770;2023-06-22T09:19:08;37.43;;;24.10;;
3293;SDS011;1659;51.470;6.770;2023-06-22T09:21:35;35.17;;;25.13;;
3293;SDS011;1659;51.470;6.770;2023-06-22T09:24:01;123.27;;;69.73;;
3293;SDS011;1659;51.470;6.770;2023-06-22T09:26:28;41.67;;;25.07;;
3293;SDS011;1659;51.470;6.770;2023-06-22T09:28:56;57.90;;;33.10;;
3293;SDS011;1659;51.470;6.770;2023-06-22T09:31:23;41.20;;;26.47;;
3293;SDS011;1659;51.470;6.770;2023-06-22T09:33:51;37.90;;;25.20;;
3293;SDS011;1659;51.470;6.770;2023-06-22T09:36:19;34.63;;;22.63;;
3293;SDS011;1659;51.470;6.770;2023-06-22T09:38:45;36.80;;;24.40;;
3293;SDS011;1659;51.470;6.770;2023-06-22T09:41:12;37.90;;;24.37;;
3293;SDS011;1659;51.470;6.770;2023-06-22T09:43:38;35.87;;;25.53;;
3293;SDS011;1659;51.470;6.770;2023-06-22T09:46:15;36.97;;;22.90;;
3293;SDS011;1659;51.470;6.770;2023-06-22T09:48:42;36.90;;;25.60;;
3293;SDS011;1659;51.470;6.770;2023-06-22T09:51:09;29.03;;;21.90;;
3293;SDS011;1659;51.470;6.770;2023-06-22T09:53:36;25.67;;;18.30;;
3293;SDS011;1659;51.470;6.770;2023-06-22T09:56:03;33.10;;;22.50;;
3293;SDS011;1659;51.470;6.770;2023-06-22T09:58:31;29.40;;;21.20;;
3293;SDS011;1659;51.470;6.770;2023-06-22T10:00:57;22.80;;;17.67;;
3293;SDS011;1659;51.470;6.770;2023-06-22T10:03:25;25.23;;;17.70;;
3293;SDS011;1659;51.470;6.770;2023-06-22T10:05:52;23.93;;;17.60;;
3293;SDS011;1659;51.470;6.770;2023-06-22T10:08:18;23.27;;;17.57;;
3293;SDS011;1659;51.470;6.770;2023-06-22T10:10:45;24.03;;;17.80;;
3293;SDS011;1659;51.470;6.770;2023-06-22T10:13:12;30.30;;;22.20;;
3293;SDS011;1659;51.470;6.770;2023-06-22T10:15:38;22.40;;;16.30;;
3293;SDS011;1659;51.470;6.770;2023-06-22T10:18:05;24.50;;;18.00;;
3293;SDS011;1659;51.470;6.770;2023-06-22T10:20:33;26.00;;;18.70;;
3293;SDS011;1659;51.470;6.770;2023-06-22T10:23:00;24.40;;;18.87;;
3293;SDS011;1659;51.470;6.770;2023-06-22T10:25:26;27.63;;;17.47;;
3293;SDS011;1659;51.470;6.770;2023-06-22T10:27:53;26.90;;;19.00;;
3293;SDS011;1659;51.470;6.770;2023-06-22T10:30:20;22.63;;;16.30;;
3293;SDS011;1659;51.470;6.770;2023-06-22T10:32:46;21.30;;;14.83;;
3293;SDS011;1659;51.470;6.770;2023-06-22T10:35:13;20.90;;;15.97;;
3293;SDS011;1659;51.470;6.770;2023-06-22T10:37:42;31.03;;;17.20;;
3293;SDS011;1659;51.470;6.770;2023-06-22T10:40:10;22.47;;;17.13;;
3293;SDS011;1659;51.470;6.770;2023-06-22T10:42:38;23.63;;;18.40;;
3293;SDS011;1659;51.470;6.770;2023-06-22T10:45:06;23.70;;;17.20;;
3293;SDS011;1659;51.470;6.770;2023-06-22T10:47:33;20.27;;;15.60;;
3293;SDS011;1659;51.470;6.770;2023-06-22T10:50:00;20.00;;;14.97;;
3293;SDS011;1659;51.470;6.770;2023-06-22T10:52:27;17.20;;;14.73;;
3293;SDS011;1659;51.470;6.770;2023-06-22T10:54:55;20.20;;;15.27;;
3293;SDS011;1659;51.470;6.770;2023-06-22T10:57:22;24.00;;;15.97;;
3293;SDS011;1659;51.470;6.770;2023-06-22T10:59:49;25.77;;;15.77;;
3293;SDS011;1659;51.470;6.770;2023-06-22T11:02:15;17.40;;;15.07;;
3293;SDS011;1659;51.470;6.770;2023-06-22T11:04:42;22.07;;;13.87;;
3293;SDS011;1659;51.470;6.770;2023-06-22T11:07:09;22.83;;;15.83;;
3293;SDS011;1659;51.470;6.770;2023-06-22T11:09:36;25.73;;;15.33;;
3293;SDS011;1659;51.470;6.770;2023-06-22T11:12:05;26.33;;;18.77;;
3293;SDS011;1659;51.470;6.770;2023-06-22T11:14:33;22.97;;;15.80;;
3293;SDS011;1659;51.470;6.770;2023-06-22T11:16:59;18.47;;;15.00;;
3293;SDS011;1659;51.470;6.770;2023-06-22T11:19:26;18.57;;;14.60;;
3293;SDS011;1659;51.470;6.770;2023-06-22T11:21:52;19.13;;;15.00;;
3293;SDS011;1659;51.470;6.770;2023-06-22T11:24:19;22.00;;;16.17;;
3293;SDS011;1659;51.470;6.770;2023-06-22T11:26:46;22.67;;;14.80;;
3293;SDS011;1659;51.470;6.770;2023-06-22T11:29:13;23.17;;;17.03;;
3293;SDS011;1659;51.470;6.770;2023-06-22T11:31:40;22.20;;;15.07;;
3293;SDS011;1659;51.470;6.770;2023-06-22T11:34:08;20.07;;;14.60;;
3293;SDS011;1659;51.470;6.770;2023-06-22T11:36:35;20.90;;;15.47;;
3293;SDS011;1659;51.470;6.770;2023-06-22T11:39:01;19.90;;;16.13;;
3293;SDS011;1659;51.470;6.770;2023-06-22T11:41:28;21.20;;;15.20;;
3293;SDS011;1659;51.470;6.770;2023-06-22T11:43:55;21.30;;;16.43;;
3293;SDS011;1659;51.470;6.770;2023-06-22T11:46:22;25.30;;;16.67;;
3293;SDS011;1659;51.470;6.770;2023-06-22T11:48:49;28.00;;;20.47;;
3293;SDS011;1659;51.470;6.770;2023-06-22T11:51:16;27.73;;;19.10;;
3293;SDS011;1659;51.470;6.770;2023-06-22T11:53:42;43.03;;;27.20;;
3293;SDS011;1659;51.470;6.770;2023-06-22T11:56:09;36.90;;;23.80;;
3293;SDS011;1659;51.470;6.770;2023-06-22T11:58:35;34.40;;;22.30;;
3293;SDS011;1659;51.470;6.770;2023-06-22T12:01:02;33.70;;;19.93;;
3293;SDS011;1659;51.470;6.770;2023-06-22T12:03:31;30.50;;;20.00;;
3293;SDS011;1659;51.470;6.770;2023-06-22T12:05:59;32.17;;;20.30;;
3293;SDS011;1659;51.470;6.770;2023-06-22T12:08:26;34.33;;;20.00;;
3293;SDS011;1659;51.470;6.770;2023-06-22T12:10:52;29.70;;;19.60;;
3293;SDS011;1659;51.470;6.770;2023-06-22T12:13:19;38.03;;;21.73;;
3293;SDS011;1659;51.470;6.770;2023-06-22T12:15:46;34.70;;;22.10;;
3293;SDS011;1659;51.470;6.770;2023-06-22T12:18:13;39.17;;;24.73;;
3293;SDS011;1659;51.470;6.770;2023-06-22T12:20:41;38.80;;;22.10;;
3293;SDS011;1659;51.470;6.770;2023-06-22T12:23:07;33.47;;;22.83;;
3293;SDS011;1659;51.470;6.770;2023-06-22T12:25:34;32.30;;;21.37;;
3293;SDS011;1659;51.470;6.770;2023-06-22T12:28:01;33.63;;;22.63;;
3293;SDS011;1659;51.470;6.770;2023-06-22T12:30:27;43.40;;;27.17;;
3293;SDS011;1659;51.470;6.770;2023-06-22T12:32:54;35.13;;;20.80;;
3293;SDS011;1659;51.470;6.770;2023-06-22T12:35:20;42.33;;;23.70;;
3293;SDS011;1659;51.470;6.770;2023-06-22T12:37:48;37.00;;;24.57;;
3293;SDS011;1659;51.470;6.770;2023-06-22T12:40:15;49.70;;;32.23;;
3293;SDS011;1659;51.470;6.770;2023-06-22T12:42:42;40.37;;;25.23;;
3293;SDS011;1659;51.470;6.770;2023-06-22T12:45:09;42.10;;;27.10;;
3293;SDS011;1659;51.470;6.770;2023-06-22T12:47:36;39.93;;;24.07;;
3293;SDS011;1659;51.470;6.770;2023-06-22T12:50:02;42.20;;;26.30;;
3293;SDS011;1659;51.470;6.770;2023-06-22T12:52:29;37.40;;;25.60;;
3293;SDS011;1659;51.470;6.770;2023-06-22T12:54:58;40.77;;;23.50;;
3293;SDS011;1659;51.470;6.770;2023-06-22T12:57:25;32.13;;;22.50;;
3293;SDS011;1659;51.470;6.770;2023-06-22T12:59:51;38.63;;;25.37;;
3293;SDS011;1659;51.470;6.770;2023-06-22T13:02:18;39.07;;;24.37;;
3293;SDS011;1659;51.470;6.770;2023-06-22T13:04:44;38.20;;;25.83;;
3293;SDS011;1659;51.470;6.770;2023-06-22T13:07:11;38.80;;;23.43;;
3293;SDS011;1659;51.470;6.770;2023-06-22T13:09:37;36.03;;;24.20;;
3293;SDS011;1659;51.470;6.770;2023-06-22T13:12:06;36.97;;;24.20;;
3293;SDS011;1659;51.470;6.770;2023-06-22T13:14:33;38.33;;;25.57;;
3293;SDS011;1659;51.470;6.770;2023-06-22T13:16:59;39.30;;;23.77;;
3293;SDS011;1659;51.470;6.770;2023-06-22T13:19:26;39.27;;;24.50;;
3293;SDS011;1659;51.470;6.770;2023-06-22T13:21:57;40.03;;;26.03;;
3293;SDS011;1659;51.470;6.770;2023-06-22T13:24:23;39.00;;;25.80;;
3293;SDS011;1659;51.470;6.770;2023-06-22T13:26:50;39.00;;;24.80;;
3293;SDS011;1659;51.470;6.770;2023-06-22T13:29:18;40.50;;;25.97;;
3293;SDS011;1659;51.470;6.770;2023-06-22T13:31:44;42.10;;;28.07;;
3293;SDS011;1659;51.470;6.770;2023-06-22T13:34:11;46.20;;;28.97;;
3293;SDS011;1659;51.470;6.770;2023-06-22T13:36:37;39.20;;;27.27;;
3293;SDS011;1659;51.470;6.770;2023-06-22T13:39:04;42.73;;;27.80;;
3293;SDS011;1659;51.470;6.770;2023-06-22T13:41:30;39.07;;;24.80;;
3293;SDS011;1659;51.470;6.770;2023-06-22T13:43:57;38.17;;;25.73;;
3293;SDS011;1659;51.470;6.770;2023-06-22T13:46:25;54.50;;;33.67;;
3293;SDS011;1659;51.470;6.770;2023-06-22T13:48:51;52.00;;;31.77;;
3293;SDS011;1659;51.470;6.770;2023-06-22T13:51:18;45.83;;;29.73;;
3293;SDS011;1659;51.470;6.770;2023-06-22T13:53:44;45.23;;;29.80;;
3293;SDS011;1659;51.470;6.770;2023-06-22T13:56:11;45.20;;;26.87;;
3293;SDS011;1659;51.470;6.770;2023-06-22T13:58:37;40.30;;;27.33;;
3293;SDS011;1659;51.470;6.770;2023-06-22T14:01:04;38.70;;;25.60;;
3293;SDS011;1659;51.470;6.770;2023-06-22T14:03:32;41.70;;;26.87;;
3293;SDS011;1659;51.470;6.770;2023-06-22T14:05:58;34.77;;;24.20;;
3293;SDS011;1659;51.470;6.770;2023-06-22T14:08:25;41.50;;;28.03;;
3293;SDS011;1659;51.470;6.770;2023-06-22T14:10:51;35.47;;;25.13;;
3293;SDS011;1659;51.470;6.770;2023-06-22T14:13:19;33.80;;;24.20;;
3293;SDS011;1659;51.470;6.770;2023-06-22T14:15:46;43.50;;;25.43;;
3293;SDS011;1659;51.470;6.770;2023-06-22T14:18:14;38.67;;;24.87;;
3293;SDS011;1659;51.470;6.770;2023-06-22T14:20:42;35.00;;;23.60;;
3293;SDS011;1659;51.470;6.770;2023-06-22T14:23:09;37.60;;;26.40;;
3293;SDS011;1659;51.470;6.770;2023-06-22T14:25:35;34.30;;;24.10;;
3293;SDS011;1659;51.470;6.770;2023-06-22T14:28:02;34.50;;;23.20;;
3293;SDS011;1659;51.470;6.770;2023-06-22T14:30:29;38.33;;;25.80;;
3293;SDS011;1659;51.470;6.770;2023-06-22T14:32:55;37.80;;;25.10;;
3293;SDS011;1659;51.470;6.770;2023-06-22T14:35:22;38.60;;;25.93;;
3293;SDS011;1659;51.470;6.770;2023-06-22T14:37:50;40.33;;;26.37;;
3293;SDS011;1659;51.470;6.770;2023-06-22T14:40:17;39.47;;;25.53;;
3293;SDS011;1659;51.470;6.770;2023-06-22T14:42:43;34.90;;;23.77;;
3293;SDS011;1659;51.470;6.770;2023-06-22T14:45:10;39.57;;;26.43;;
3293;SDS011;1659;51.470;6.770;2023-06-22T14:47:38;37.93;;;23.27;;
3293;SDS011;1659;51.470;6.770;2023-06-22T14:50:05;38.03;;;24.43;;